Time;durP1;ratioP1;P1;durP2;ratioP2;P2;SDS_P1;SDS_P2;PMS_P1;PMS_P2;Temp;Humidity;BMP_temperature;BMP_pressure;BME280_temperature;BME280_humidity;BME280_pressure;Samples;Min_cycle;Max_cycle;Signal;HPM_P1;HPM_P2
2023/10/14 00:01:32;;;;;;;2.92;0.85;;;13.50;99.90;;;;;;5086685;28;20390;-63
2023/10/14 00:03:59;;;;;;;4.60;1.02;;;13.60;99.90;;;;;;5088666;28;20117;-79
2023/10/14 00:06:26;;;;;;;5.57;1.38;;;13.50;99.90;;;;;;5093304;28;20054;-63
2023/10/14 00:08:58;;;;;;;7.68;0.80;;;13.50;99.90;;;;;;5097230;28;20047;-64
2023/10/14 00:11:35;;;;;;;2.45;0.45;;;13.50;99.90;;;;;;5076929;28;20039;-63
2023/10/14 00:14:16;;;;;;;12.52;2.33;;;13.50;99.90;;;;;;5107882;28;20885;-63
2023/10/14 00:16:49;;;;;;;4.07;0.90;;;13.50;99.90;;;;;;5109498;28;20071;-78
2023/10/14 00:19:18;;;;;;;7.50;1.00;;;13.50;99.90;;;;;;5094941;28;20321;-63
2023/10/14 00:21:44;;;;;;;8.80;1.98;;;13.40;99.90;;;;;;5101739;28;20105;-63
2023/10/14 00:24:12;;;;;;;5.40;1.08;;;13.40;99.90;;;;;;5088863;28;20453;-64
2023/10/14 00:26:41;;;;;;;2.17;0.60;;;13.40;99.90;;;;;;5105438;28;20075;-64
2023/10/14 00:29:41;;;;;;;2.45;0.70;;;13.30;99.90;;;;;;5094390;28;20079;-64
2023/10/14 00:31:58;;;;;;;8.30;1.60;;;13.20;99.90;;;;;;5088513;28;20051;-63
2023/10/14 00:34:25;;;;;;;2.22;0.80;;;13.10;99.90;;;;;;5108225;28;20094;-64
2023/10/14 00:36:55;;;;;;;6.25;1.17;;;13.10;99.90;;;;;;5094727;28;20153;-64
2023/10/14 00:39:31;;;;;;;13.23;2.95;;;13.10;99.90;;;;;;5107471;28;20111;-64
2023/10/14 00:41:58;;;;;;;7.00;1.45;;;13.10;99.90;;;;;;5093268;28;20052;-64
2023/10/14 00:44:24;;;;;;;7.68;1.50;;;13.00;99.90;;;;;;5107672;28;20118;-64
2023/10/14 00:46:51;;;;;;;6.63;1.65;;;13.00;99.90;;;;;;5109434;28;20055;-64
2023/10/14 00:49:22;;;;;;;8.65;1.33;;;12.90;99.90;;;;;;5092217;28;20451;-63
2023/10/14 00:51:51;;;;;;;6.15;1.60;;;12.90;99.90;;;;;;5110278;28;20404;-67
2023/10/14 00:55:12;;;;;;;8.18;1.60;;;12.90;99.90;;;;;;5078531;28;20499;-73
2023/10/14 00:57:20;;;;;;;10.40;1.52;;;13.00;99.90;;;;;;5096223;28;20146;-63
2023/10/14 00:59:55;;;;;;;6.63;1.83;;;12.90;99.90;;;;;;5087687;28;20081;-66
2023/10/14 01:02:31;;;;;;;10.15;2.05;;;12.90;99.90;;;;;;5098211;28;20409;-66
2023/10/14 01:05:06;;;;;;;11.25;1.58;;;12.90;99.90;;;;;;5107792;28;20035;-83
2023/10/14 01:07:32;;;;;;;6.57;1.33;;;12.80;99.90;;;;;;5108703;28;20039;-63
2023/10/14 01:10:00;;;;;;;5.30;1.27;;;12.80;99.90;;;;;;5086569;28;20485;-63
2023/10/14 01:12:28;;;;;;;6.80;1.42;;;12.70;99.90;;;;;;5102844;28;20039;-64
2023/10/14 01:14:58;;;;;;;7.93;1.75;;;12.60;99.90;;;;;;5073076;28;20062;-63
2023/10/14 01:19:51;;;;;;;8.40;1.55;;;12.60;99.90;;;;;;5092262;28;20512;-63
2023/10/14 01:22:18;;;;;;;7.97;2.13;;;12.60;99.90;;;;;;5106234;28;20048;-63
2023/10/14 01:24:44;;;;;;;8.95;1.67;;;12.50;99.90;;;;;;5073331;28;20043;-64
2023/10/14 01:27:11;;;;;;;10.30;2.72;;;12.50;99.90;;;;;;5106565;28;20501;-74
2023/10/14 01:29:41;;;;;;;4.60;1.15;;;12.50;99.90;;;;;;5096939;28;20506;-76
2023/10/14 01:35:12;;;;;;;5.00;1.17;;;12.40;99.90;;;;;;5085554;28;20079;-63
2023/10/14 01:37:40;;;;;;;7.80;1.30;;;12.30;99.90;;;;;;5108424;28;20050;-63
2023/10/14 01:43:05;;;;;;;6.97;1.58;;;12.20;99.90;;;;;;5108412;28;20040;-62
2023/10/14 01:45:39;;;;;;;4.75;1.02;;;12.20;99.90;;;;;;5074307;28;20050;-63
2023/10/14 01:50:44;;;;;;;5.20;1.35;;;12.10;99.90;;;;;;5107060;28;20124;-63
2023/10/14 01:53:17;;;;;;;7.72;1.42;;;12.10;99.90;;;;;;5105943;28;20499;-67
2023/10/14 01:55:45;;;;;;;2.72;1.00;;;12.00;99.90;;;;;;5108556;28;20079;-63
2023/10/14 01:58:13;;;;;;;9.02;1.35;;;12.00;99.90;;;;;;5106703;28;20040;-63
2023/10/14 02:00:39;;;;;;;5.57;1.10;;;11.90;99.90;;;;;;5098151;28;20048;-63
2023/10/14 02:03:06;;;;;;;8.43;1.38;;;11.90;99.90;;;;;;5097321;28;20109;-63
2023/10/14 02:05:41;;;;;;;12.25;1.55;;;11.90;99.90;;;;;;5106290;28;20047;-69
2023/10/14 02:08:15;;;;;;;6.20;1.33;;;11.80;99.90;;;;;;5095992;28;20055;-63
2023/10/14 02:10:53;;;;;;;11.95;1.27;;;11.80;99.90;;;;;;5090547;28;20425;-63
2023/10/14 02:13:23;;;;;;;5.50;1.63;;;11.70;99.90;;;;;;5107892;28;20038;-63
2023/10/14 02:15:52;;;;;;;4.22;0.95;;;11.70;99.90;;;;;;5097439;28;20040;-63
2023/10/14 02:18:21;;;;;;;6.30;1.10;;;11.70;99.90;;;;;;5106507;28;20046;-68
2023/10/14 02:20:57;;;;;;;9.80;1.67;;;11.60;99.90;;;;;;5108307;28;20066;-72
2023/10/14 02:23:29;;;;;;;6.53;1.40;;;11.60;99.90;;;;;;5079041;28;20051;-63
2023/10/14 02:25:59;;;;;;;7.05;1.27;;;11.50;99.90;;;;;;5092281;28;20333;-63
2023/10/14 02:28:39;;;;;;;;;;;11.50;99.90;;;;;;5079147;28;20039;-63
2023/10/14 02:31:28;;;;;;;9.48;1.77;;;11.50;99.90;;;;;;5105489;28;20359;-63
2023/10/14 02:34:08;;;;;;;11.15;1.60;;;11.50;99.90;;;;;;5097453;28;20130;-63
2023/10/14 02:36:35;;;;;;;11.25;1.92;;;11.40;99.90;;;;;;5075622;28;20446;-63
2023/10/14 02:39:04;;;;;;;9.63;1.45;;;11.50;99.90;;;;;;5096173;28;20164;-69
2023/10/14 02:41:32;;;;;;;14.80;1.58;;;11.50;99.90;;;;;;5109964;28;20050;-75
2023/10/14 02:44:44;;;;;;;3.92;1.23;;;11.50;99.90;;;;;;5111421;28;20131;-63
2023/10/14 02:46:54;;;;;;;6.90;1.45;;;11.50;99.90;;;;;;5093408;28;20433;-63
2023/10/14 02:49:24;;;;;;;8.50;1.60;;;11.50;99.90;;;;;;5106536;28;20085;-63
2023/10/14 02:51:52;;;;;;;11.55;1.75;;;11.50;99.90;;;;;;5093606;28;20047;-62
2023/10/14 02:54:27;;;;;;;7.63;1.52;;;11.50;99.90;;;;;;5074458;28;20042;-63
2023/10/14 02:57:00;;;;;;;4.45;1.15;;;11.50;99.90;;;;;;5092968;28;20102;-82
2023/10/14 03:12:50;;;;;;;5.93;0.88;;;11.30;99.90;;;;;;5105200;28;20071;-63
2023/10/14 03:15:22;;;;;;;;;;;11.20;99.90;;;;;;5099969;28;20044;-76
2023/10/14 03:17:56;;;;;;;6.20;1.02;;;11.20;99.90;;;;;;5106868;28;20006;-86
2023/10/14 03:22:55;;;;;;;11.40;1.42;;;11.10;99.90;;;;;;5107439;28;20051;-77
2023/10/14 03:25:24;;;;;;;3.28;1.02;;;11.00;99.90;;;;;;5110490;28;20064;-63
2023/10/14 03:27:50;;;;;;;11.13;1.42;;;11.00;99.90;;;;;;5098105;28;20062;-78
2023/10/14 03:30:20;;;;;;;7.03;1.20;;;11.00;99.90;;;;;;5088493;28;20044;-63
2023/10/14 03:32:46;;;;;;;9.35;1.83;;;11.00;99.90;;;;;;5098175;28;20055;-63
2023/10/14 03:35:13;;;;;;;5.75;1.13;;;10.90;99.90;;;;;;5110316;28;20094;-75
2023/10/14 03:37:52;;;;;;;8.05;1.25;;;10.90;99.90;;;;;;5090365;28;20100;-63
2023/10/14 03:41:10;;;;;;;13.95;1.67;;;10.90;99.90;;;;;;5091473;28;20439;-79
2023/10/14 03:43:10;;;;;;;8.43;1.02;;;10.90;99.90;;;;;;5075182;28;20472;-63
2023/10/14 03:45:53;;;;;;;2.75;1.08;;;10.90;99.90;;;;;;5095153;28;20127;-63
2023/10/14 03:48:27;;;;;;;1.55;0.75;;;10.90;99.90;;;;;;5110387;28;20039;-63
2023/10/14 03:50:54;;;;;;;6.30;1.35;;;10.90;99.90;;;;;;5085485;28;20494;-63
2023/10/14 03:53:20;;;;;;;8.15;1.17;;;10.80;99.90;;;;;;5063139;28;20522;-63
2023/10/14 03:55:45;;;;;;;5.47;0.73;;;10.80;99.90;;;;;;5109792;28;20127;-63
2023/10/14 03:58:12;;;;;;;8.73;0.82;;;10.80;99.90;;;;;;5108424;28;20036;-63
2023/10/14 04:00:38;;;;;;;15.60;1.40;;;10.80;99.90;;;;;;5109472;28;20386;-63
2023/10/14 04:03:11;;;;;;;7.25;1.17;;;10.80;99.90;;;;;;5097129;28;20050;-65
2023/10/14 04:05:41;;;;;;;6.55;1.02;;;10.80;99.90;;;;;;5109347;28;20565;-69
2023/10/14 04:08:08;;;;;;;8.77;1.30;;;10.90;99.90;;;;;;5108855;28;20055;-63
2023/10/14 04:10:38;;;;;;;10.50;2.33;;;10.90;99.90;;;;;;5095545;28;20036;-63
2023/10/14 04:13:12;;;;;;;4.15;1.02;;;10.80;99.90;;;;;;5097431;28;20086;-63
2023/10/14 04:15:53;;;;;;;8.70;1.40;;;10.80;99.90;;;;;;5098974;28;20457;-64
2023/10/14 04:18:24;;;;;;;11.68;1.48;;;10.90;99.90;;;;;;5083734;28;20371;-63
2023/10/14 04:21:02;;;;;;;3.65;1.00;;;10.90;99.90;;;;;;5090396;28;20422;-78
2023/10/14 04:23:29;;;;;;;10.20;1.33;;;10.80;99.90;;;;;;5095093;28;20047;-63
2023/10/14 04:26:03;;;;;;;10.55;2.00;;;10.80;99.90;;;;;;5087180;28;20160;-63
2023/10/14 04:28:30;;;;;;;10.70;2.13;;;10.90;99.90;;;;;;5088541;28;20147;-68
2023/10/14 04:31:06;;;;;;;11.93;1.80;;;10.90;99.90;;;;;;5095446;28;20520;-80
2023/10/14 04:33:44;;;;;;;3.97;1.00;;;10.90;99.90;;;;;;5063018;28;20048;-63
2023/10/14 04:38:42;;;;;;;10.50;1.88;;;10.90;99.90;;;;;;5080681;28;20087;-80
2023/10/14 04:41:24;;;;;;;7.43;1.10;;;10.90;99.90;;;;;;5101434;28;20510;-84
2023/10/14 04:44:00;;;;;;;4.97;1.23;;;10.80;99.90;;;;;;5082859;28;20055;-83
2023/10/14 04:46:33;;;;;;;4.95;1.00;;;10.80;99.90;;;;;;5105577;28;20503;-63
2023/10/14 04:48:59;;;;;;;12.68;1.45;;;10.80;99.90;;;;;;5070590;28;20402;-63
2023/10/14 04:51:36;;;;;;;9.32;1.55;;;10.70;99.90;;;;;;5085429;28;20049;-83
2023/10/14 04:54:02;;;;;;;3.60;0.90;;;10.70;99.90;;;;;;5090682;28;20055;-63
2023/10/14 04:56:33;;;;;;;6.35;1.10;;;10.60;99.90;;;;;;5098713;28;20042;-63
2023/10/14 04:58:59;;;;;;;6.72;1.17;;;10.60;99.90;;;;;;5086646;28;20095;-63
2023/10/14 05:01:25;;;;;;;1.85;0.73;;;10.60;99.90;;;;;;5055140;28;20052;-81
2023/10/14 05:03:57;;;;;;;6.60;1.25;;;10.60;99.90;;;;;;5086727;28;20036;-63
2023/10/14 05:06:23;;;;;;;5.22;1.48;;;10.60;99.90;;;;;;5088883;28;20044;-63
2023/10/14 05:08:54;;;;;;;4.40;0.90;;;10.60;99.90;;;;;;5086956;28;20406;-63
2023/10/14 05:11:23;;;;;;;5.07;1.00;;;10.60;99.90;;;;;;5092038;28;20039;-63
2023/10/14 05:16:55;;;;;;;8.43;2.25;;;10.70;99.90;;;;;;5091571;28;20508;-63
2023/10/14 05:19:41;;;;;;;8.40;1.90;;;10.70;99.90;;;;;;5108294;28;20040;-63
2023/10/14 05:22:18;;;;;;;4.63;1.33;;;10.70;99.90;;;;;;5104856;28;20436;-63
2023/10/14 05:24:48;;;;;;;6.90;1.33;;;10.70;99.90;;;;;;5107364;28;20047;-63
2023/10/14 05:27:21;;;;;;;5.10;0.90;;;10.70;99.90;;;;;;5110134;28;20107;-63
2023/10/14 05:29:50;;;;;;;4.68;1.25;;;10.70;99.90;;;;;;5108158;28;20111;-63
2023/10/14 05:32:23;;;;;;;7.40;1.47;;;10.70;99.90;;;;;;5097882;28;20093;-64
2023/10/14 05:34:51;;;;;;;5.93;1.10;;;10.70;99.90;;;;;;5067917;28;20361;-64
2023/10/14 05:37:17;;;;;;;8.10;1.33;;;10.70;99.90;;;;;;5097146;28;20054;-64
2023/10/14 05:39:43;;;;;;;10.05;1.48;;;10.70;99.90;;;;;;5107787;28;20040;-63
2023/10/14 05:42:15;;;;;;;4.65;1.08;;;10.70;99.90;;;;;;5098897;28;20051;-63
2023/10/14 05:44:47;;;;;;;3.92;0.73;;;10.70;99.90;;;;;;5083398;28;20055;-69
2023/10/14 05:47:17;;;;;;;6.75;1.38;;;10.60;99.90;;;;;;5106963;28;20075;-63
2023/10/14 05:49:44;;;;;;;7.80;1.13;;;10.60;99.90;;;;;;5089897;28;20043;-63
2023/10/14 05:52:11;;;;;;;4.63;1.17;;;10.60;99.90;;;;;;5105113;28;20044;-63
2023/10/14 05:54:38;;;;;;;6.85;1.25;;;10.60;99.90;;;;;;5098511;28;20044;-63
2023/10/14 05:57:05;;;;;;;6.63;1.92;;;10.60;99.90;;;;;;5107588;28;20562;-63
2023/10/14 05:59:32;;;;;;;9.63;1.02;;;10.60;99.90;;;;;;5088655;28;20043;-63
2023/10/14 06:01:58;;;;;;;9.05;1.45;;;10.60;99.90;;;;;;5082220;28;20047;-63
2023/10/14 06:04:24;;;;;;;5.65;1.30;;;10.60;99.90;;;;;;5082851;28;20402;-63
2023/10/14 06:06:49;;;;;;;9.45;1.27;;;10.60;99.90;;;;;;5086855;28;20051;-85
2023/10/14 06:09:17;;;;;;;6.97;1.20;;;10.60;99.90;;;;;;5069046;28;20039;-63
2023/10/14 06:11:45;;;;;;;4.68;1.17;;;10.60;99.90;;;;;;5091442;28;20040;-63
2023/10/14 06:14:12;;;;;;;6.65;1.00;;;10.60;99.90;;;;;;5072762;28;20086;-63
2023/10/14 06:16:38;;;;;;;9.20;1.35;;;10.60;99.90;;;;;;5090570;28;20036;-63
2023/10/14 06:19:05;;;;;;;14.13;1.90;;;10.60;99.90;;;;;;5091004;28;20117;-68
2023/10/14 06:21:33;;;;;;;7.30;1.30;;;10.60;99.90;;;;;;5089962;28;20040;-63
2023/10/14 06:24:04;;;;;;;10.23;1.00;;;10.60;99.90;;;;;;5090511;28;20082;-63
2023/10/14 06:26:34;;;;;;;9.55;1.90;;;10.50;99.90;;;;;;5078569;28;20079;-63
2023/10/14 06:29:00;;;;;;;4.47;1.45;;;10.50;99.90;;;;;;5079144;28;20517;-63
2023/10/14 06:31:26;;;;;;;8.88;1.58;;;10.50;99.90;;;;;;5089880;28;20036;-63
2023/10/14 06:33:54;;;;;;;5.53;1.45;;;10.50;99.90;;;;;;5089690;28;20055;-63
2023/10/14 06:36:23;;;;;;;9.48;1.90;;;10.60;99.90;;;;;;5089976;28;20477;-68
2023/10/14 06:38:50;;;;;;;8.15;1.48;;;10.60;99.90;;;;;;5085893;28;20140;-63
2023/10/14 06:41:18;;;;;;;6.88;1.48;;;10.70;99.90;;;;;;5091244;28;20040;-63
2023/10/14 06:43:55;;;;;;;12.73;1.48;;;10.80;99.90;;;;;;5071418;28;20048;-63
2023/10/14 06:46:21;;;;;;;5.07;1.02;;;10.80;99.90;;;;;;5074315;28;20085;-63
2023/10/14 06:48:52;;;;;;;13.25;2.15;;;10.90;99.90;;;;;;5072372;28;20043;-63
2023/10/14 06:51:19;;;;;;;11.25;1.70;;;11.00;99.90;;;;;;5071549;28;20048;-63
2023/10/14 06:53:45;;;;;;;7.35;1.52;;;11.00;99.90;;;;;;5090712;28;20046;-63
2023/10/14 06:56:11;;;;;;;10.07;1.55;;;11.10;99.90;;;;;;5089006;28;20119;-63
2023/10/14 06:58:39;;;;;;;11.00;1.92;;;11.10;99.90;;;;;;5087746;28;20130;-63
2023/10/14 07:01:07;;;;;;;6.32;1.50;;;11.20;99.90;;;;;;5095103;28;20453;-63
2023/10/14 07:03:33;;;;;;;6.72;1.35;;;11.30;99.90;;;;;;5072170;28;20093;-64
2023/10/14 07:05:59;;;;;;;15.65;2.35;;;11.40;99.90;;;;;;5062392;28;20427;-63
2023/10/14 07:08:29;;;;;;;8.13;1.55;;;11.50;99.90;;;;;;5080130;28;20509;-63
2023/10/14 07:10:55;;;;;;;;;;;11.50;99.90;;;;;;5065150;28;20041;-63
2023/10/14 07:13:23;;;;;;;6.65;1.20;;;11.60;99.90;;;;;;5109552;28;19973;-63
2023/10/14 07:15:50;;;;;;;6.20;1.17;;;11.70;99.90;;;;;;5090661;28;20040;-63
2023/10/14 07:18:23;;;;;;;8.07;1.67;;;11.70;99.90;;;;;;5096347;28;20043;-63
2023/10/14 07:21:00;;;;;;;7.47;1.40;;;11.60;99.90;;;;;;5085942;28;20402;-63
2023/10/14 07:23:27;;;;;;;11.02;1.52;;;11.60;99.90;;;;;;5084721;28;20050;-63
2023/10/14 07:25:53;;;;;;;8.95;1.40;;;11.70;99.90;;;;;;5088119;28;20036;-63
2023/10/14 07:28:19;;;;;;;12.85;1.88;;;11.80;99.90;;;;;;5081037;28;20104;-63
2023/10/14 07:30:48;;;;;;;12.75;1.77;;;11.80;99.90;;;;;;5109264;28;20042;-63
2023/10/14 07:33:16;;;;;;;7.05;1.35;;;11.90;99.90;;;;;;5108936;28;20254;-63
2023/10/14 07:35:42;;;;;;;5.00;1.35;;;12.10;99.90;;;;;;5108706;28;20051;-63
2023/10/14 07:38:09;;;;;;;10.40;1.27;;;12.20;99.90;;;;;;5098680;28;20127;-63
2023/10/14 07:40:36;;;;;;;11.13;1.60;;;12.20;99.90;;;;;;5091150;28;20047;-63
2023/10/14 07:43:07;;;;;;;4.00;1.05;;;12.20;99.90;;;;;;5109050;28;20385;-63
2023/10/14 07:45:38;;;;;;;5.57;1.20;;;12.20;99.90;;;;;;5095485;28;20051;-63
2023/10/14 07:48:11;;;;;;;13.15;1.33;;;12.30;99.90;;;;;;5087279;28;20044;-63
2023/10/14 07:50:38;;;;;;;9.35;1.40;;;12.30;99.90;;;;;;5090047;28;20040;-63
2023/10/14 07:53:08;;;;;;;8.48;1.13;;;12.30;99.90;;;;;;5086658;28;20043;-63
2023/10/14 07:55:47;;;;;;;5.78;1.02;;;12.40;99.90;;;;;;5089661;28;20363;-63
2023/10/14 07:58:23;;;;;;;10.40;1.95;;;12.50;99.90;;;;;;5088283;28;20586;-63
2023/10/14 08:00:49;;;;;;;4.53;1.35;;;12.60;99.90;;;;;;5087952;28;20104;-67
2023/10/14 08:03:20;;;;;;;7.40;1.33;;;12.80;99.90;;;;;;5095804;28;20094;-63
2023/10/14 08:06:00;;;;;;;3.13;1.08;;;12.80;99.90;;;;;;5095299;28;20043;-64
2023/10/14 08:08:31;;;;;;;7.40;1.27;;;12.90;99.90;;;;;;5102379;28;20051;-67
2023/10/14 08:10:58;;;;;;;13.95;1.42;;;12.90;99.90;;;;;;5075389;28;20042;-62
2023/10/14 08:13:25;;;;;;;6.57;1.05;;;13.00;99.90;;;;;;5073645;28;20076;-63
2023/10/14 08:15:53;;;;;;;8.98;1.33;;;13.10;99.90;;;;;;5086512;28;20071;-63
2023/10/14 08:18:23;;;;;;;9.05;0.95;;;13.10;99.90;;;;;;5087364;28;20457;-63
2023/10/14 08:20:53;;;;;;;8.07;1.38;;;13.30;99.90;;;;;;5070581;28;20055;-63
2023/10/14 08:23:20;;;;;;;;;;;13.40;99.90;;;;;;5085952;28;20180;-63
2023/10/14 08:25:47;;;;;;;13.63;1.23;;;13.40;97.30;;;;;;5082564;28;19924;-63
2023/10/14 08:28:13;;;;;;;7.40;1.75;;;13.40;99.90;;;;;;5059470;28;20438;-63
2023/10/14 08:30:46;;;;;;;10.63;1.10;;;13.40;98.20;;;;;;5078461;28;20122;-63
2023/10/14 08:33:16;;;;;;;12.18;2.33;;;13.40;97.50;;;;;;5071300;28;20067;-63
2023/10/14 08:35:42;;;;;;;;;;;13.40;99.90;;;;;;5090894;28;20047;-63
2023/10/14 08:38:13;;;;;;;8.70;0.85;;;13.50;99.90;;;;;;5092161;28;19924;-63
2023/10/14 08:40:40;;;;;;;9.32;1.20;;;13.50;99.90;;;;;;5086201;28;20472;-63
2023/10/14 08:43:16;;;;;;;4.45;0.88;;;13.50;97.60;;;;;;5069828;28;20062;-63
2023/10/14 08:45:47;;;;;;;4.57;0.65;;;13.50;94.90;;;;;;5057752;28;20044;-63
2023/10/14 08:48:19;;;;;;;8.57;1.75;;;13.50;96.70;;;;;;5068281;28;20054;-63
2023/10/14 08:50:47;;;;;;;14.82;1.58;;;13.50;99.90;;;;;;5078816;28;20051;-63
2023/10/14 08:53:13;;;;;;;8.32;1.35;;;13.60;99.90;;;;;;5082261;28;20445;-63
2023/10/14 08:55:40;;;;;;;6.63;1.13;;;13.60;99.90;;;;;;5088398;28;20047;-63
2023/10/14 08:58:13;;;;;;;9.82;0.98;;;13.50;99.40;;;;;;5082935;28;20041;-63
2023/10/14 09:00:40;;;;;;;11.93;2.20;;;13.40;99.90;;;;;;5085266;28;20117;-63
2023/10/14 09:03:07;;;;;;;8.05;0.95;;;13.40;99.10;;;;;;5086498;28;20123;-63
2023/10/14 09:05:40;;;;;;;10.73;1.67;;;13.40;99.90;;;;;;5077113;28;20044;-63
2023/10/14 09:08:12;;;;;;;5.97;1.33;;;13.40;98.60;;;;;;5087773;28;20059;-63
2023/10/14 09:10:38;;;;;;;1.88;0.55;;;13.50;95.80;;;;;;5078394;28;20437;-63
2023/10/14 09:13:09;;;;;;;10.35;1.65;;;13.50;93.70;;;;;;5100150;28;20481;-63
2023/10/14 09:15:39;;;;;;;7.13;1.50;;;13.50;84.20;;;;;;5088607;28;20059;-63
2023/10/14 09:18:27;;;;;;;6.78;1.02;;;13.60;90.90;;;;;;5078247;28;20032;-63
2023/10/14 09:20:54;;;;;;;0.68;0.52;;;13.70;90.60;;;;;;5089261;28;20059;-63
2023/10/14 09:23:44;;;;;;;7.72;1.40;;;13.80;90.40;;;;;;5096643;28;20055;-63
2023/10/14 09:26:09;;;;;;;5.47;0.85;;;13.80;78.50;;;;;;5079861;28;20048;-63
2023/10/14 09:28:40;;;;;;;5.43;1.15;;;13.90;88.10;;;;;;5061685;28;20044;-63
2023/10/14 09:31:08;;;;;;;5.32;0.88;;;13.90;92.70;;;;;;5073954;28;20398;-63
2023/10/14 09:33:37;;;;;;;2.33;0.52;;;14.00;78.90;;;;;;5087199;28;20036;-62
2023/10/14 09:36:05;;;;;;;6.05;0.90;;;14.20;94.00;;;;;;5078382;28;20028;-63
2023/10/14 09:38:32;;;;;;;11.27;2.10;;;14.30;74.90;;;;;;5052263;28;20048;-63
2023/10/14 09:41:02;;;;;;;6.53;1.27;;;14.40;49.00;;;;;;5082820;28;20050;-66
2023/10/14 09:43:29;;;;;;;;;;;14.40;54.50;;;;;;5087216;28;20040;-64
2023/10/14 09:46:03;;;;;;;6.18;1.67;;;14.20;70.00;;;;;;5100268;28;19923;-63
2023/10/14 09:48:34;;;;;;;4.18;1.27;;;13.70;52.00;;;;;;5088993;28;20079;-63
2023/10/14 09:51:02;;;;;;;5.70;1.45;;;13.30;35.50;;;;;;5087687;28;20123;-63
2023/10/14 09:53:33;;;;;;;5.40;1.33;;;12.90;34.70;;;;;;5067357;28;20055;-63
2023/10/14 09:56:10;;;;;;;4.93;0.70;;;12.90;45.80;;;;;;5075709;28;20079;-63
2023/10/14 09:58:41;;;;;;;5.13;1.30;;;13.00;45.70;;;;;;5084959;28;20119;-63
2023/10/14 10:01:11;;;;;;;11.15;2.10;;;13.00;37.90;;;;;;5078324;28;20113;-63
2023/10/14 10:03:37;;;;;;;8.32;1.60;;;13.10;44.20;;;;;;5082655;28;20059;-63
2023/10/14 10:06:15;;;;;;;5.30;0.82;;;13.30;45.60;;;;;;5085440;28;20036;-85
2023/10/14 10:08:55;;;;;;;4.05;0.85;;;13.40;54.50;;;;;;5086272;28;20385;-63
2023/10/14 10:11:25;;;;;;;5.97;1.20;;;13.70;55.60;;;;;;5077239;28;20083;-63
2023/10/14 10:13:52;;;;;;;5.63;1.55;;;13.80;35.80;;;;;;5088002;28;20513;-63
2023/10/14 10:16:21;;;;;;;2.85;1.17;;;13.80;21.60;;;;;;5077059;28;20048;-63
2023/10/14 10:18:56;;;;;;;3.90;1.23;;;13.90;41.90;;;;;;5095775;28;20071;-64
2023/10/14 10:21:26;;;;;;;7.38;1.20;;;13.90;3.20;;;;;;5090866;28;20047;-63
2023/10/14 10:23:59;;;;;;;;;;;13.80;1.00;;;;;;5103446;28;20110;-63
2023/10/14 10:26:25;;;;;;;3.05;1.10;;;13.80;1.00;;;;;;5089468;28;20312;-63
2023/10/14 10:28:51;;;;;;;4.18;0.82;;;13.70;1.00;;;;;;5087151;28;20044;-63
2023/10/14 10:31:23;;;;;;;5.32;0.90;;;13.70;1.00;;;;;;5089167;28;20048;-68
2023/10/14 10:34:00;;;;;;;5.78;1.02;;;13.80;1.00;;;;;;5076073;28;20057;-63
2023/10/14 10:36:33;;;;;;;3.42;0.63;;;13.80;1.00;;;;;;5088485;28;20087;-63
2023/10/14 10:39:16;;;;;;;7.28;0.90;;;13.70;1.00;;;;;;5103025;28;20043;-63
2023/10/14 10:41:42;;;;;;;6.82;0.70;;;13.70;1.00;;;;;;5067870;28;20044;-63
2023/10/14 10:44:11;;;;;;;6.20;0.70;;;13.70;2.40;;;;;;5097107;28;20132;-63
2023/10/14 10:46:41;;;;;;;3.47;0.60;;;13.60;1.00;;;;;;5100795;28;20401;-72
2023/10/14 10:49:10;;;;;;;1.55;0.30;;;13.70;1.00;;;;;;5102308;28;20132;-63
2023/10/14 10:51:42;;;;;;;7.13;0.93;;;13.70;1.00;;;;;;5091785;28;20073;-63
2023/10/14 10:54:10;;;;;;;2.05;0.70;;;13.90;4.20;;;;;;5096780;28;20048;-63
2023/10/14 10:56:35;;;;;;;4.00;0.88;;;14.10;6.20;;;;;;5099863;28;20059;-63
2023/10/14 10:59:07;;;;;;;2.75;0.57;;;14.20;1.00;;;;;;5102400;28;20050;-63
2023/10/14 11:01:33;;;;;;;3.15;0.73;;;14.50;5.90;;;;;;5078313;28;20046;-63
2023/10/14 11:04:08;;;;;;;3.03;0.30;;;14.60;6.80;;;;;;5089851;28;20048;-62
2023/10/14 11:06:35;;;;;;;9.15;1.92;;;14.60;37.00;;;;;;5094889;28;20497;-64
2023/10/14 11:09:01;;;;;;;8.27;1.58;;;14.50;28.40;;;;;;5101886;28;20496;-63
2023/10/14 11:11:32;;;;;;;8.35;1.85;;;14.40;23.90;;;;;;5079445;28;20101;-63
2023/10/14 11:14:00;;;;;;;1.88;0.38;;;14.40;19.50;;;;;;5081464;28;20566;-63
2023/10/14 11:16:29;;;;;;;8.32;1.45;;;14.30;9.80;;;;;;5079268;28;20028;-63
2023/10/14 11:18:56;;;;;;;8.38;1.23;;;14.30;2.80;;;;;;5103965;28;20027;-64
2023/10/14 11:21:27;;;;;;;10.90;1.85;;;14.30;7.70;;;;;;5070452;28;20509;-63
2023/10/14 11:23:54;;;;;;;7.07;1.65;;;14.20;8.80;;;;;;5088363;28;20043;-63
2023/10/14 11:26:20;;;;;;;2.42;0.68;;;14.00;1.50;;;;;;5086053;28;20036;-63
2023/10/14 11:28:48;;;;;;;4.38;0.63;;;13.70;5.00;;;;;;5087568;28;20455;-76
2023/10/14 11:31:14;;;;;;;4.60;1.10;;;13.30;16.20;;;;;;5061897;28;20060;-63
2023/10/14 11:33:47;;;;;;;7.10;1.48;;;13.30;25.60;;;;;;5073145;28;20044;-63
2023/10/14 11:36:20;;;;;;;9.05;1.40;;;13.30;31.30;;;;;;5093955;28;20490;-63
2023/10/14 11:38:48;;;;;;;8.00;1.60;;;13.40;47.30;;;;;;5084593;28;20048;-63
2023/10/14 11:41:15;;;;;;;11.90;2.03;;;13.60;30.30;;;;;;5089047;28;20124;-63
2023/10/14 11:43:45;;;;;;;10.40;1.38;;;13.80;1.00;;;;;;5071431;28;20047;-63
2023/10/14 11:46:11;;;;;;;;;;;14.00;1.00;;;;;;5044587;28;20483;-63
2023/10/14 11:48:38;;;;;;;7.88;1.92;;;14.20;1.00;;;;;;5089170;28;20272;-74
2023/10/14 11:51:11;;;;;;;12.32;2.60;;;14.30;1.00;;;;;;5087830;28;20550;-63
2023/10/14 11:53:43;;;;;;;11.77;1.77;;;14.30;1.00;;;;;;5089436;28;20080;-64
2023/10/14 11:56:13;;;;;;;12.13;2.40;;;14.00;1.00;;;;;;5089214;28;20039;-63
2023/10/14 11:58:42;;;;;;;11.10;2.55;;;13.60;1.00;;;;;;5087117;28;20051;-63
2023/10/14 12:01:12;;;;;;;9.43;2.40;;;13.60;1.00;;;;;;5071038;28;20055;-64
2023/10/14 12:03:38;;;;;;;15.40;2.35;;;13.60;1.00;;;;;;5052401;28;20044;-63
2023/10/14 12:06:07;;;;;;;7.93;2.13;;;13.70;1.00;;;;;;5089487;28;20040;-64
2023/10/14 12:08:36;;;;;;;3.30;1.63;;;13.80;1.00;;;;;;5086404;28;20047;-63
2023/10/14 12:11:08;;;;;;;7.53;2.08;;;13.80;1.00;;;;;;5092007;28;20047;-64
2023/10/14 12:13:34;;;;;;;6.40;2.17;;;13.90;1.00;;;;;;5109326;28;20086;-63
2023/10/14 12:16:05;;;;;;;6.88;2.15;;;13.90;1.00;;;;;;5108418;28;20051;-64
2023/10/14 12:18:35;;;;;;;8.48;2.38;;;14.00;1.00;;;;;;5100568;28;20048;-63
2023/10/14 12:21:02;;;;;;;5.35;1.73;;;13.90;1.00;;;;;;5105909;28;20044;-82
2023/10/14 12:23:31;;;;;;;3.55;0.98;;;13.90;1.00;;;;;;5096863;28;20085;-63
2023/10/14 12:26:00;;;;;;;10.48;2.25;;;14.00;1.00;;;;;;5103968;28;20040;-63
2023/10/14 12:28:30;;;;;;;7.93;2.28;;;14.10;1.00;;;;;;5086754;28;20040;-63
2023/10/14 12:31:03;;;;;;;5.93;1.30;;;14.10;1.00;;;;;;5076287;28;20040;-63
2023/10/14 12:33:31;;;;;;;4.35;1.20;;;14.10;1.00;;;;;;5096271;28;20389;-63
2023/10/14 12:35:59;;;;;;;7.55;1.77;;;14.10;1.00;;;;;;5085773;28;20054;-64
2023/10/14 12:38:27;;;;;;;3.47;1.63;;;14.20;1.00;;;;;;5089858;28;20036;-64
2023/10/14 12:40:54;;;;;;;10.90;1.75;;;14.30;1.00;;;;;;5073159;28;20086;-63
2023/10/14 12:43:32;;;;;;;11.10;2.00;;;14.30;1.00;;;;;;5093992;28;20051;-63
2023/10/14 12:46:19;;;;;;;8.68;2.30;;;14.20;1.00;;;;;;5067171;28;20139;-63
2023/10/14 12:48:48;;;;;;;7.50;1.77;;;14.20;1.00;;;;;;5088972;28;20541;-63
2023/10/14 12:51:30;;;;;;;14.57;2.40;;;14.10;1.00;;;;;;5099081;28;20035;-63
2023/10/14 12:54:00;;;;;;;7.78;1.90;;;14.20;1.00;;;;;;5108211;28;20047;-63
2023/10/14 12:56:26;;;;;;;5.00;1.45;;;14.20;1.00;;;;;;5108288;28;20059;-63
2023/10/14 12:58:53;;;;;;;3.50;1.08;;;14.30;1.00;;;;;;5107899;28;20385;-64
2023/10/14 13:01:22;;;;;;;7.32;1.20;;;14.40;1.00;;;;;;5087014;28;20048;-64
2023/10/14 13:03:53;;;;;;;6.75;2.20;;;14.40;1.00;;;;;;5104385;28;20043;-64
2023/10/14 13:06:23;;;;;;;4.53;1.45;;;14.50;1.00;;;;;;5081876;28;20055;-63
2023/10/14 13:08:49;;;;;;;8.77;1.98;;;14.50;1.00;;;;;;5103542;28;20070;-64
2023/10/14 13:11:17;;;;;;;7.65;1.92;;;14.50;1.00;;;;;;5094418;28;20054;-68
2023/10/14 13:13:50;;;;;;;10.07;1.98;;;14.50;1.00;;;;;;5089145;28;20040;-64
2023/10/14 13:16:18;;;;;;;3.75;1.05;;;14.50;1.00;;;;;;5089526;28;20031;-63
2023/10/14 13:18:45;;;;;;;4.53;1.65;;;14.50;1.00;;;;;;5090743;28;20048;-82
2023/10/14 13:21:21;;;;;;;11.65;1.70;;;14.40;1.00;;;;;;5099927;28;20056;-64
2023/10/14 13:23:47;;;;;;;9.70;2.20;;;14.40;1.00;;;;;;5079907;28;20043;-64
2023/10/14 13:26:16;;;;;;;14.07;2.20;;;14.50;1.00;;;;;;5092112;28;20384;-64
2023/10/14 13:28:46;;;;;;;12.63;2.00;;;14.50;1.00;;;;;;5074957;28;20051;-64
2023/10/14 13:31:15;;;;;;;2.00;0.63;;;14.50;1.00;;;;;;5097907;28;20127;-63
2023/10/14 13:33:42;;;;;;;4.43;1.45;;;14.50;1.00;;;;;;5080284;28;20443;-63
2023/10/14 13:36:10;;;;;;;3.90;1.27;;;14.50;1.00;;;;;;5083615;28;20092;-64